createdAt,value
2023-04-21T00:00:45.435Z,14.57
2023-04-21T00:03:13.418Z,12.87
2023-04-21T00:05:43.545Z,12.70
2023-04-21T00:08:11.456Z,11.37
2023-04-21T00:10:39.323Z,12.33
2023-04-21T00:13:07.218Z,14.03
2023-04-21T00:15:35.191Z,13.13
2023-04-21T00:18:03.825Z,13.83
2023-04-21T00:20:32.248Z,13.70
2023-04-21T00:23:01.627Z,14.17
2023-04-21T00:25:29.490Z,12.50
2023-04-21T00:27:57.414Z,13.53
2023-04-21T00:30:25.468Z,14.47
2023-04-21T00:32:53.385Z,14.40
2023-04-21T00:35:21.252Z,13.23
2023-04-21T00:37:50.204Z,12.93
2023-04-21T00:40:19.569Z,14.97
2023-04-21T00:42:47.425Z,15.80
2023-04-21T00:45:16.000Z,14.30
2023-04-21T00:47:44.591Z,13.30
2023-04-21T00:50:13.173Z,11.27
2023-04-21T00:52:41.871Z,12.73
2023-04-21T00:55:10.550Z,12.30
2023-04-21T00:57:40.359Z,11.87
2023-04-21T01:00:10.607Z,12.93
2023-04-21T01:02:40.422Z,15.37
2023-04-21T01:05:10.057Z,14.77
2023-04-21T01:07:38.483Z,15.03
2023-04-21T01:10:07.498Z,15.27
2023-04-21T01:12:42.802Z,15.77
2023-04-21T01:15:13.104Z,16.30
2023-04-21T01:17:41.747Z,16.37
2023-04-21T01:20:12.100Z,16.67
2023-04-21T01:22:42.802Z,15.63
2023-04-21T01:25:11.322Z,16.10
2023-04-21T01:27:39.290Z,14.77
2023-04-21T01:30:08.725Z,15.50
2023-04-21T01:32:36.988Z,13.33
2023-04-21T01:35:06.625Z,12.70
2023-04-21T01:37:35.184Z,13.00
2023-04-21T01:40:09.245Z,12.90
2023-04-21T01:42:39.266Z,13.97
2023-04-21T01:45:08.624Z,14.67
2023-04-21T01:47:36.593Z,15.13
2023-04-21T01:50:04.811Z,14.07
2023-04-21T01:52:32.737Z,13.60
2023-04-21T01:55:01.864Z,13.43
2023-04-21T01:57:31.172Z,13.43
2023-04-21T01:59:59.001Z,12.20
2023-04-21T02:02:27.105Z,13.53
2023-04-21T02:04:55.178Z,12.87
2023-04-21T02:07:23.006Z,12.70
2023-04-21T02:09:50.911Z,12.40
2023-04-21T02:12:18.754Z,12.47
2023-04-21T02:14:49.298Z,12.43
2023-04-21T02:17:17.820Z,13.77
2023-04-21T02:19:45.854Z,13.93
2023-04-21T02:22:13.832Z,14.03
2023-04-21T02:24:41.820Z,14.20
2023-04-21T02:27:09.669Z,12.20
2023-04-21T02:29:37.570Z,10.67
2023-04-21T02:32:22.273Z,11.53
2023-04-21T02:34:53.260Z,12.70
2023-04-21T02:37:21.371Z,14.57
2023-04-21T02:39:49.250Z,14.43
2023-04-21T02:42:17.126Z,14.57
2023-04-21T02:44:44.954Z,15.40
2023-04-21T02:47:16.563Z,15.20
2023-04-21T02:49:44.820Z,14.43
2023-04-21T02:52:12.688Z,12.93
2023-04-21T02:54:40.672Z,14.13
2023-04-21T02:57:08.566Z,14.57
2023-04-21T02:59:36.397Z,15.43
2023-04-21T03:02:04.711Z,16.33
2023-04-21T03:04:34.262Z,17.43
2023-04-21T03:07:02.401Z,16.60
2023-04-21T03:09:30.496Z,16.97
2023-04-21T03:11:58.413Z,15.67
2023-04-21T03:14:26.270Z,15.20
2023-04-21T03:16:54.179Z,13.80
2023-04-21T03:19:22.187Z,14.30
2023-04-21T03:21:51.469Z,15.87
2023-04-21T03:24:19.452Z,13.97
2023-04-21T03:26:47.283Z,14.63
2023-04-21T03:29:15.289Z,14.93
2023-04-21T03:31:43.234Z,14.60
2023-04-21T03:34:11.188Z,15.20
2023-04-21T03:36:39.053Z,15.13
2023-04-21T03:39:19.319Z,16.00
2023-04-21T03:41:48.363Z,15.83
2023-04-21T03:44:16.232Z,15.13
2023-04-21T03:46:44.069Z,15.60
2023-04-21T03:49:12.139Z,15.27
2023-04-21T03:51:39.984Z,14.50
2023-04-21T03:54:09.497Z,16.20
2023-04-21T03:56:37.373Z,15.57
2023-04-21T03:59:05.788Z,14.50
2023-04-21T04:01:35.014Z,14.40
2023-04-21T04:04:03.212Z,14.40
2023-04-21T04:06:32.152Z,16.70
2023-04-21T04:09:02.635Z,15.87
2023-04-21T04:11:32.044Z,16.77
2023-04-21T04:14:00.070Z,16.30
2023-04-21T04:16:29.177Z,16.47
2023-04-21T04:18:57.466Z,15.70
2023-04-21T04:21:25.404Z,15.57
2023-04-21T04:23:53.406Z,16.40
2023-04-21T04:26:22.725Z,15.43
2023-04-21T04:28:52.010Z,15.53
2023-04-21T04:31:20.238Z,15.87
2023-04-21T04:33:48.268Z,14.90
2023-04-21T04:36:16.125Z,15.03
2023-04-21T04:38:45.941Z,16.20
2023-04-21T04:41:13.921Z,15.47
2023-04-21T04:43:41.812Z,19.10
2023-04-21T04:46:13.095Z,18.67
2023-04-21T04:48:41.369Z,20.43
2023-04-21T04:51:09.261Z,22.13
2023-04-21T04:53:37.090Z,21.17
2023-04-21T04:56:05.043Z,19.07
2023-04-21T04:58:32.871Z,16.67
2023-04-21T05:01:01.096Z,16.50
2023-04-21T05:03:30.394Z,18.63
2023-04-21T05:05:58.385Z,20.90
2023-04-21T05:08:26.365Z,20.87
2023-04-21T05:10:54.246Z,19.33
2023-04-21T05:13:22.107Z,18.23
2023-04-21T05:15:50.086Z,17.40
2023-04-21T05:18:17.924Z,18.37
2023-04-21T05:20:47.296Z,18.00
2023-04-21T05:23:15.175Z,17.60
2023-04-21T05:25:46.045Z,17.60
2023-04-21T05:28:13.983Z,17.67
2023-04-21T05:30:41.824Z,18.70
2023-04-21T05:33:10.388Z,18.80
2023-04-21T05:35:38.280Z,20.20
2023-04-21T05:38:07.612Z,20.03
2023-04-21T05:40:35.611Z,20.30
2023-04-21T05:43:03.450Z,21.80
2023-04-21T05:45:31.295Z,20.00
2023-04-21T05:47:59.407Z,19.33
2023-04-21T05:50:33.917Z,18.43
2023-04-21T05:53:01.795Z,19.00
2023-04-21T05:55:31.008Z,18.30
2023-04-21T05:57:58.826Z,18.17
2023-04-21T06:00:26.914Z,16.93
2023-04-21T06:02:54.974Z,17.70
2023-04-21T06:05:23.316Z,15.83
2023-04-21T06:07:51.204Z,15.90
2023-04-21T06:10:19.600Z,15.30
2023-04-21T06:12:49.111Z,14.67
2023-04-21T06:15:17.292Z,15.43
2023-04-21T06:17:45.159Z,15.80
2023-04-21T06:20:13.690Z,15.83
2023-04-21T06:22:41.543Z,15.17
2023-04-21T06:25:09.725Z,15.10
2023-04-21T06:27:37.577Z,14.50
2023-04-21T06:30:08.350Z,15.07
2023-04-21T06:32:36.270Z,15.07
2023-04-21T06:35:04.266Z,15.37
2023-04-21T06:37:32.184Z,14.57
2023-04-21T06:40:00.054Z,15.00
2023-04-21T06:42:27.893Z,15.37
2023-04-21T06:44:56.603Z,14.13
2023-04-21T06:47:26.460Z,14.97
2023-04-21T06:49:54.326Z,14.00
2023-04-21T06:52:22.170Z,14.20
2023-04-21T06:54:50.027Z,14.20
2023-04-21T06:57:17.866Z,14.57
2023-04-21T06:59:45.775Z,15.37
2023-04-21T07:02:13.757Z,15.80
2023-04-21T07:04:43.054Z,15.50
2023-04-21T07:07:10.891Z,13.93
2023-04-21T07:09:38.813Z,13.93
2023-04-21T07:12:06.920Z,13.27
2023-04-21T07:14:34.764Z,13.07
2023-04-21T07:17:02.674Z,12.90
2023-04-21T07:19:30.600Z,12.10
2023-04-21T07:21:59.947Z,12.50
2023-04-21T07:24:27.800Z,11.80
2023-04-21T07:26:55.689Z,11.57
2023-04-21T07:29:23.550Z,10.77
2023-04-21T07:31:51.874Z,10.60
2023-04-21T07:34:19.850Z,10.77
2023-04-21T07:36:47.826Z,10.30
2023-04-21T07:39:17.279Z,10.43
2023-04-21T07:41:45.518Z,9.45
2023-04-21T07:44:13.327Z,9.85
2023-04-21T07:46:41.325Z,9.63
2023-04-21T07:49:09.519Z,9.18
2023-04-21T07:51:37.413Z,9.20
2023-04-21T07:54:05.412Z,9.18
2023-04-21T07:56:34.690Z,9.05
2023-04-21T07:59:02.552Z,9.70
2023-04-21T08:01:30.425Z,9.55
2023-04-21T08:03:58.561Z,8.95
2023-04-21T08:06:27.694Z,8.60
2023-04-21T08:08:56.001Z,8.70
2023-04-21T08:11:23.987Z,8.80
2023-04-21T08:13:53.207Z,9.50
2023-04-21T08:16:21.312Z,8.95
2023-04-21T08:18:49.798Z,8.68
2023-04-21T08:21:17.668Z,8.27
2023-04-21T08:23:45.544Z,8.55
2023-04-21T08:26:16.311Z,7.38
2023-04-21T08:28:44.159Z,7.35
2023-04-21T08:31:13.378Z,7.70
2023-04-21T08:33:49.878Z,6.43
2023-04-21T08:36:28.799Z,5.18
2023-04-21T08:38:58.026Z,5.32
2023-04-21T08:41:26.897Z,5.28
2023-04-21T08:43:54.737Z,5.57
2023-04-21T08:46:24.705Z,5.78
2023-04-21T08:48:53.727Z,5.55
2023-04-21T08:51:25.002Z,5.38
2023-04-21T08:53:52.980Z,5.50
2023-04-21T08:56:20.825Z,5.45
2023-04-21T08:58:48.715Z,5.20
2023-04-21T09:01:16.600Z,5.40
2023-04-21T09:03:46.200Z,5.85
2023-04-21T09:06:14.545Z,5.80
2023-04-21T09:08:44.708Z,5.65
2023-04-21T09:11:16.142Z,5.60
2023-04-21T09:13:44.823Z,5.50
2023-04-21T09:16:21.251Z,5.82
2023-04-21T09:18:51.637Z,5.78
2023-04-21T09:21:20.808Z,5.68
2023-04-21T09:23:49.814Z,5.63
2023-04-21T09:26:18.980Z,5.50
2023-04-21T09:28:48.108Z,5.32
2023-04-21T09:31:17.628Z,5.57
2023-04-21T09:33:58.882Z,5.35
2023-04-21T09:36:29.361Z,5.63
2023-04-21T09:39:24.515Z,5.45
2023-04-21T09:41:46.756Z,5.18
2023-04-21T09:44:18.002Z,5.60
2023-04-21T09:46:49.658Z,5.38
2023-04-21T09:49:19.773Z,5.22
2023-04-21T09:56:55.112Z,5.10
2023-04-21T09:59:28.309Z,4.82
2023-04-21T10:01:58.494Z,4.68
2023-04-21T10:04:30.033Z,4.80
2023-04-21T10:06:59.748Z,4.60
2023-04-21T10:09:36.260Z,4.60
2023-04-21T10:12:07.716Z,4.30
2023-04-21T10:14:36.952Z,4.43
2023-04-21T10:17:06.757Z,4.32
2023-04-21T10:19:40.051Z,4.65
2023-04-21T10:22:09.946Z,4.65
2023-04-21T10:24:40.049Z,4.20
2023-04-21T10:27:11.647Z,4.18
2023-04-21T10:29:52.664Z,4.13
2023-04-21T10:32:40.621Z,4.13
2023-04-21T10:35:11.922Z,4.20
2023-04-21T10:37:42.390Z,4.20
2023-04-21T10:40:44.148Z,3.97
2023-04-21T10:43:49.874Z,4.18
2023-04-21T10:46:33.842Z,4.22
2023-04-21T10:49:06.818Z,4.50
2023-04-21T10:51:58.432Z,4.07
2023-04-21T10:54:26.949Z,4.53
2023-04-21T10:56:55.897Z,4.13
2023-04-21T10:59:28.128Z,4.20
2023-04-21T11:01:56.128Z,4.38
2023-04-21T11:04:24.868Z,4.03
2023-04-21T11:07:08.362Z,4.38
2023-04-21T11:09:36.943Z,5.03
2023-04-21T11:12:07.494Z,4.65
2023-04-21T11:14:37.120Z,4.65
2023-04-21T11:17:06.073Z,4.20
2023-04-21T11:19:33.972Z,4.13
2023-04-21T11:22:01.910Z,4.00
2023-04-21T11:24:32.865Z,4.10
2023-04-21T11:27:02.232Z,3.88
2023-04-21T11:29:30.468Z,3.95
2023-04-21T11:31:59.385Z,3.95
2023-04-21T11:34:28.351Z,4.15
2023-04-21T11:36:56.621Z,3.72
2023-04-21T11:39:24.473Z,3.90
2023-04-21T11:41:53.895Z,4.03
2023-04-21T11:44:36.350Z,4.63
2023-04-21T11:47:14.813Z,4.20
2023-04-21T11:49:47.815Z,4.38
2023-04-21T11:52:29.341Z,4.05
2023-04-21T11:54:59.576Z,3.70
2023-04-21T11:57:30.325Z,3.85
2023-04-21T12:00:00.546Z,3.80
2023-04-21T12:02:30.631Z,3.80
2023-04-21T12:05:03.250Z,3.83
2023-04-21T12:07:32.721Z,3.78
2023-04-21T12:10:01.277Z,4.18
2023-04-21T12:12:31.204Z,4.28
2023-04-21T12:14:59.509Z,4.80
2023-04-21T12:17:27.472Z,4.80
2023-04-21T12:19:55.336Z,4.20
2023-04-21T12:22:23.667Z,4.85
2023-04-21T12:24:51.533Z,3.70
2023-04-21T12:27:20.015Z,4.25
2023-04-21T12:29:49.255Z,3.80
2023-04-21T12:32:17.163Z,3.88
2023-04-21T12:34:44.990Z,3.80
2023-04-21T12:37:12.877Z,3.90
2023-04-21T12:39:40.738Z,3.13
2023-04-21T12:42:09.372Z,3.40
2023-04-21T12:44:37.355Z,3.58
2023-04-21T12:47:09.427Z,3.40
2023-04-21T12:49:38.081Z,3.60
2023-04-21T12:52:06.605Z,3.58
2023-04-21T12:54:34.540Z,3.60
2023-04-21T12:57:02.607Z,3.60
2023-04-21T12:59:30.742Z,3.97
2023-04-21T13:01:58.784Z,3.60
2023-04-21T13:04:28.350Z,3.50
2023-04-21T13:06:56.378Z,3.38
2023-04-21T13:09:24.209Z,3.60
2023-04-21T13:11:52.271Z,3.80
2023-04-21T13:14:20.165Z,3.70
2023-04-21T13:16:48.124Z,3.60
2023-04-21T13:19:16.080Z,3.83
2023-04-21T13:21:45.310Z,3.38
2023-04-21T13:24:14.863Z,3.90
2023-04-21T13:26:42.996Z,3.88
2023-04-21T13:29:10.853Z,4.07
2023-04-21T13:31:38.945Z,3.90
2023-04-21T13:34:07.034Z,3.85
2023-04-21T13:36:34.916Z,3.80
2023-04-21T13:39:05.659Z,3.88
2023-04-21T13:41:33.660Z,3.97
2023-04-21T13:44:01.512Z,4.10
2023-04-21T13:46:29.618Z,3.80
2023-04-21T13:48:57.543Z,4.03
2023-04-21T13:51:25.489Z,3.75
2023-04-21T13:53:53.444Z,3.80
2023-04-21T13:56:23.035Z,4.05
2023-04-21T13:58:50.928Z,3.38
2023-04-21T14:01:21.263Z,3.70
2023-04-21T14:03:49.775Z,3.72
2023-04-21T14:06:17.906Z,3.60
2023-04-21T14:08:45.786Z,3.60
2023-04-21T14:11:13.664Z,3.53
2023-04-21T14:13:56.122Z,3.47
2023-04-21T14:16:31.066Z,3.85
2023-04-21T14:18:58.886Z,4.00
2023-04-21T14:21:26.775Z,3.65
2023-04-21T14:23:54.625Z,3.90
2023-04-21T14:26:22.540Z,3.35
2023-04-21T14:28:51.910Z,3.28
2023-04-21T14:31:21.762Z,3.28
2023-04-21T14:33:50.264Z,3.40
2023-04-21T14:36:18.281Z,3.55
2023-04-21T14:38:46.201Z,3.60
2023-04-21T14:41:14.538Z,3.55
2023-04-21T14:43:42.480Z,3.97
2023-04-21T14:46:11.833Z,4.15
2023-04-21T14:48:39.733Z,3.53
2023-04-21T14:51:09.387Z,4.13
2023-04-21T14:53:37.476Z,3.80
2023-04-21T14:56:05.740Z,3.63
2023-04-21T14:58:33.981Z,4.00
2023-04-21T15:01:01.998Z,3.45
2023-04-21T15:03:31.650Z,3.55
2023-04-21T15:05:59.696Z,3.75
2023-04-21T15:08:27.723Z,3.37
2023-04-21T15:10:56.327Z,3.30
2023-04-21T15:13:24.528Z,3.30
2023-04-21T15:15:52.625Z,3.42
2023-04-21T15:18:20.941Z,3.50
2023-04-21T15:20:50.316Z,3.08
2023-04-21T15:23:18.221Z,2.95
2023-04-21T15:25:46.131Z,2.53
2023-04-21T15:28:14.212Z,2.67
2023-04-21T15:30:42.099Z,2.70
2023-04-21T15:33:11.622Z,2.78
2023-04-21T15:35:39.602Z,2.80
2023-04-21T15:38:09.118Z,2.58
2023-04-21T15:40:46.306Z,2.58
2023-04-21T15:43:23.129Z,2.40
2023-04-21T15:45:53.100Z,2.70
2023-04-21T15:48:22.218Z,2.50
2023-04-21T15:50:50.271Z,2.40
2023-04-21T15:53:20.295Z,2.40
2023-04-21T15:55:48.506Z,2.40
2023-04-21T15:58:17.261Z,2.50
2023-04-21T16:00:45.912Z,2.50
2023-04-21T16:03:14.163Z,2.67
2023-04-21T16:05:42.606Z,2.50
2023-04-21T16:08:10.697Z,2.58
2023-04-21T16:10:40.040Z,2.25
2023-04-21T16:13:08.245Z,2.65
2023-04-21T16:15:36.103Z,2.60
2023-04-21T16:18:06.503Z,2.20
2023-04-21T16:20:34.770Z,2.40
2023-04-21T16:23:04.787Z,2.63
2023-04-21T16:25:33.252Z,2.43
2023-04-21T16:28:02.726Z,2.60
2023-04-21T16:30:30.662Z,2.50
2023-04-21T16:32:58.571Z,3.20
2023-04-21T16:35:26.587Z,2.70
2023-04-21T16:37:54.611Z,3.20
2023-04-21T16:40:24.202Z,3.27
2023-04-21T16:42:52.635Z,2.53
2023-04-21T16:45:22.160Z,3.10
2023-04-21T16:47:50.320Z,3.27
2023-04-21T16:50:18.316Z,3.07
2023-04-21T16:52:46.180Z,3.20
2023-04-21T16:55:14.098Z,3.10
2023-04-21T16:57:42.208Z,3.13
2023-04-21T17:00:11.286Z,2.90
2023-04-21T17:02:40.687Z,3.00
2023-04-21T17:05:09.268Z,2.97
2023-04-21T17:07:39.369Z,3.30
2023-04-21T17:10:08.111Z,3.33
2023-04-21T17:12:36.135Z,2.90
2023-04-21T17:15:05.170Z,2.90
2023-04-21T17:17:41.400Z,3.20
2023-04-21T17:20:12.713Z,3.50
2023-04-21T17:22:41.079Z,3.57
2023-04-21T17:25:09.946Z,3.53
2023-04-21T17:27:40.712Z,3.43
2023-04-21T17:30:10.113Z,3.37
2023-04-21T17:32:38.219Z,3.93
2023-04-21T17:35:06.766Z,3.60
2023-04-21T17:37:36.497Z,4.00
2023-04-21T17:40:04.553Z,4.27
2023-04-21T17:42:32.390Z,4.00
2023-04-21T17:45:00.297Z,4.40
2023-04-21T17:47:28.217Z,4.03
2023-04-21T17:49:56.060Z,4.00
2023-04-21T17:52:23.951Z,4.30
2023-04-21T17:54:53.602Z,4.00
2023-04-21T17:57:21.521Z,4.40
2023-04-21T17:59:49.422Z,4.33
2023-04-21T18:02:17.480Z,4.20
2023-04-21T18:04:46.094Z,4.20
2023-04-21T18:07:14.958Z,3.93
2023-04-21T18:09:43.429Z,4.30
2023-04-21T18:12:12.891Z,4.50
2023-04-21T18:14:40.917Z,4.73
2023-04-21T18:17:08.925Z,4.80
2023-04-21T18:19:36.813Z,5.37
2023-04-21T18:22:04.744Z,5.20
2023-04-21T18:24:32.641Z,5.00
2023-04-21T18:27:00.720Z,5.33
2023-04-21T18:29:29.914Z,6.17
2023-04-21T18:31:57.977Z,4.90
2023-04-21T18:34:26.224Z,5.30
2023-04-21T18:36:54.112Z,5.20
2023-04-21T18:39:21.973Z,5.30
2023-04-21T18:41:50.837Z,5.47
2023-04-21T18:44:18.689Z,4.80
2023-04-21T18:46:48.243Z,5.03
2023-04-21T18:49:16.117Z,5.30
2023-04-21T18:51:43.959Z,4.97
2023-04-21T18:54:13.544Z,4.70
2023-04-21T18:56:41.427Z,5.17
2023-04-21T18:59:09.911Z,5.33
2023-04-21T19:01:39.074Z,5.30
2023-04-21T19:04:10.553Z,4.90
2023-04-21T19:06:38.712Z,4.80
2023-04-21T19:09:06.646Z,4.87
2023-04-21T19:11:34.646Z,4.43
2023-04-21T19:14:02.641Z,4.97
2023-04-21T19:16:30.866Z,5.13
2023-04-21T19:18:58.734Z,4.90
2023-04-21T19:21:28.181Z,4.43
2023-04-21T19:23:57.942Z,5.00
2023-04-21T19:26:26.203Z,4.77
2023-04-21T19:28:55.524Z,5.00
2023-04-21T19:31:24.480Z,4.60
2023-04-21T19:33:52.514Z,4.63
2023-04-21T19:36:20.555Z,4.83
2023-04-21T19:38:49.825Z,5.03
2023-04-21T19:41:17.752Z,4.83
2023-04-21T19:43:45.590Z,5.13
2023-04-21T19:46:13.883Z,5.00
2023-04-21T19:48:42.757Z,5.57
2023-04-21T19:51:10.731Z,4.87
2023-04-21T19:53:38.582Z,5.00
2023-04-21T19:56:07.930Z,5.73
2023-04-21T19:58:40.883Z,5.20
2023-04-21T20:01:09.158Z,5.30
2023-04-21T20:03:37.429Z,5.33
2023-04-21T20:06:06.454Z,5.27
2023-04-21T20:08:35.602Z,5.10
2023-04-21T20:11:03.496Z,5.50
2023-04-21T20:13:32.760Z,5.30
2023-04-21T20:16:00.953Z,4.97
2023-04-21T20:18:29.170Z,5.20
2023-04-21T20:20:57.083Z,4.57
2023-04-21T20:23:25.012Z,5.40
2023-04-21T20:25:52.897Z,4.87
2023-04-21T20:28:21.138Z,6.03
2023-04-21T20:30:50.425Z,5.50
2023-04-21T20:33:18.275Z,6.03
2023-04-21T20:35:46.328Z,6.17
2023-04-21T20:38:14.434Z,5.83
2023-04-21T20:40:42.288Z,7.67
2023-04-21T20:43:10.269Z,8.30
2023-04-21T20:45:38.811Z,8.80
2023-04-21T20:48:08.076Z,8.23
2023-04-21T20:50:35.961Z,18.17
2023-04-21T20:53:03.952Z,15.97
2023-04-21T20:55:31.993Z,19.53
2023-04-21T20:57:59.873Z,15.20
2023-04-21T21:00:28.131Z,13.07
2023-04-21T21:02:56.202Z,12.80
2023-04-21T21:05:25.577Z,11.17
2023-04-21T21:07:53.511Z,9.57
2023-04-21T21:10:21.423Z,9.07
2023-04-21T21:12:49.282Z,8.07
2023-04-21T21:15:17.289Z,7.83
2023-04-21T21:17:45.308Z,7.97
2023-04-21T21:20:13.300Z,7.47
2023-04-21T21:22:43.218Z,6.30
2023-04-21T21:25:11.599Z,6.60
2023-04-21T21:27:39.594Z,6.27
2023-04-21T21:30:08.872Z,6.57
2023-04-21T21:32:39.131Z,6.50
2023-04-21T21:35:09.474Z,6.57
2023-04-21T21:37:37.595Z,6.73
2023-04-21T21:40:08.467Z,6.43
2023-04-21T21:42:36.441Z,8.00
2023-04-21T21:45:04.526Z,7.27
2023-04-21T21:47:32.440Z,6.50
2023-04-21T21:50:00.506Z,6.70
2023-04-21T21:52:29.520Z,6.70
2023-04-21T21:54:58.506Z,6.27
2023-04-21T21:57:27.813Z,7.67
2023-04-21T21:59:55.976Z,9.20
2023-04-21T22:02:23.933Z,7.77
2023-04-21T22:04:51.955Z,8.40
2023-04-21T22:07:20.088Z,7.57
2023-04-21T22:09:48.076Z,7.80
2023-04-21T22:12:15.989Z,8.10
2023-04-21T22:14:45.528Z,7.83
2023-04-21T22:17:14.504Z,8.10
2023-04-21T22:19:43.173Z,7.77
2023-04-21T22:22:11.125Z,7.97
2023-04-21T22:24:39.006Z,7.97
2023-04-21T22:27:06.833Z,8.17
2023-04-21T22:29:34.720Z,7.90
2023-04-21T22:32:03.995Z,6.93
2023-04-21T22:34:31.933Z,8.00
2023-04-21T22:36:59.798Z,7.57
2023-04-21T22:39:28.871Z,7.20
2023-04-21T22:41:57.478Z,8.13
2023-04-21T22:44:25.665Z,7.13
2023-04-21T22:46:53.633Z,8.13
2023-04-21T22:49:22.915Z,7.87
2023-04-21T22:51:50.761Z,8.63
2023-04-21T22:54:18.609Z,9.07
2023-04-21T22:56:46.564Z,9.27
2023-04-21T22:59:14.437Z,9.37
2023-04-21T23:01:42.356Z,9.03
2023-04-21T23:04:10.284Z,8.07
2023-04-21T23:06:39.638Z,7.40
2023-04-21T23:09:07.482Z,8.50
2023-04-21T23:11:35.360Z,7.80
2023-04-21T23:14:03.229Z,7.27
2023-04-21T23:16:31.339Z,7.53
2023-04-21T23:18:59.433Z,6.60
2023-04-21T23:21:27.340Z,7.17
2023-04-21T23:23:56.559Z,6.50
2023-04-21T23:26:24.782Z,6.53
2023-04-21T23:28:52.627Z,6.10
2023-04-21T23:31:20.542Z,6.70
2023-04-21T23:33:48.553Z,6.57
2023-04-21T23:36:16.391Z,6.20
2023-04-21T23:38:44.226Z,6.50
2023-04-21T23:41:13.560Z,6.63
2023-04-21T23:43:41.513Z,6.67
2023-04-21T23:46:09.383Z,7.73
2023-04-21T23:48:37.284Z,7.60
2023-04-21T23:51:05.493Z,7.17
2023-04-21T23:53:33.998Z,7.30
2023-04-21T23:56:02.007Z,6.77
2023-04-21T23:58:31.273Z,7.60
